Time,TemperatureF,DewpointF,PressureIn,WindDirection,WindDirectionDegrees,WindSpeedMPH,WindSpeedGustMPH,Humidity,HourlyPrecipIn,Conditions,Clouds,dailyrainin,SoftwareType,DateUTC
2013-04-11 00:00:00,38.3,38.0,30.00,NNE,22,3.5,3.5,99,0.00,RA,,0.00,WeatherDisplay:10.37,2013-04-11 04:00:00,
2013-04-11 00:05:00,38.3,38.0,29.99,NNW,338,4.6,4.6,99,0.00,RA,,0.00,WeatherDisplay:10.37,2013-04-11 04:05:00,
2013-04-11 00:10:00,38.3,38.0,29.99,NE,45,4.6,4.6,99,0.00,CLR,,0.00,WeatherDisplay:10.37,2013-04-11 04:10:00,
2013-04-11 00:15:00,38.1,37.8,29.97,ESE,112,4.6,4.6,99,0.00,CLR,,0.00,WeatherDisplay:10.37,2013-04-11 04:15:00,
2013-04-11 00:20:00,38.1,37.8,29.97,ENE,68,4.6,4.6,99,0.00,CLR,,0.00,WeatherDisplay:10.37,2013-04-11 04:20:00,
2013-04-11 00:25:00,38.1,37.8,29.98,NNW,338,3.5,3.5,99,0.00,CLR,,0.00,WeatherDisplay:10.37,2013-04-11 04:25:00,
2013-04-11 00:30:00,38.1,37.8,29.98,NE,45,4.2,4.2,99,0.00,CLR,,0.00,WeatherDisplay:10.37,2013-04-11 04:30:00,
2013-04-11 00:35:00,38.1,37.8,29.98,West,270,4.6,4.6,99,0.00,CLR,,0.00,WeatherDisplay:10.37,2013-04-11 04:35:00,
2013-04-11 00:40:00,38.1,37.8,29.98,NNW,338,3.5,3.5,99,0.00,CLR,,0.00,WeatherDisplay:10.37,2013-04-11 04:40:00,
2013-04-11 00:45:00,38.1,37.8,29.98,NNE,22,3.5,3.5,99,0.00,CLR,,0.00,WeatherDisplay:10.37,2013-04-11 04:45:00,
2013-04-11 00:50:00,37.8,37.5,29.98,ENE,68,5.8,5.8,99,0.00,CLR,,0.00,WeatherDisplay:10.37,2013-04-11 04:50:00,
2013-04-11 00:55:00,37.8,37.3,29.98,NNE,22,4.2,4.2,98,0.00,CLR,,0.00,WeatherDisplay:10.37,2013-04-11 04:55:00,
2013-04-11 01:00:00,37.8,37.3,29.98,North,360,3.5,3.5,98,0.00,CLR,,0.00,WeatherDisplay:10.37,2013-04-11 05:00:00,
2013-04-11 01:05:00,37.9,37.1,29.99,West,270,2.3,2.3,97,0.00,CLR,,0.00,WeatherDisplay:10.37,2013-04-11 05:05:00,
2013-04-11 01:10:00,37.9,37.1,29.99,ENE,68,2.3,2.3,97,0.00,CLR,,0.00,WeatherDisplay:10.37,2013-04-11 05:10:00,
2013-04-11 01:15:00,37.8,37.0,29.99,NNE,22,2.3,2.3,97,0.00,CLR,,0.00,WeatherDisplay:10.37,2013-04-11 05:15:00,
2013-04-11 01:20:00,37.9,37.1,29.99,ENE,68,2.3,2.3,97,0.00,CLR,,0.00,WeatherDisplay:10.37,2013-04-11 05:20:00,
2013-04-11 01:25:00,37.8,36.8,29.97,ENE,68,2.3,2.6,96,0.00,CLR,,0.00,WeatherDisplay:10.37,2013-04-11 05:25:00,
2013-04-11 01:30:00,37.8,36.8,29.97,NW,315,2.3,2.3,96,0.00,CLR,,0.00,WeatherDisplay:10.37,2013-04-11 05:30:00,
2013-04-11 01:35:00,37.9,36.9,29.97,ENE,68,2.3,2.3,96,0.00,CLR,,0.00,WeatherDisplay:10.37,2013-04-11 05:35:00,
2013-04-11 01:40:00,38.1,36.8,29.98,West,270,1.7,1.8,95,0.00,CLR,,0.00,WeatherDisplay:10.37,2013-04-11 05:40:00,
2013-04-11 01:45:00,38.1,36.8,29.98,North,360,2.3,2.3,95,0.00,CLR,,0.00,WeatherDisplay:10.37,2013-04-11 05:45:00,
2013-04-11 01:50:00,37.9,36.6,29.98,NNW,338,3.5,3.5,95,0.00,CLR,,0.00,WeatherDisplay:10.37,2013-04-11 05:50:00,
2013-04-11 01:55:00,37.9,36.6,29.98,SSW,202,2.3,2.3,95,0.00,CLR,,0.00,WeatherDisplay:10.37,2013-04-11 05:55:00,
2013-04-11 02:00:00,37.9,36.9,29.98,West,270,0.0,0.0,96,0.00,CLR,,0.00,WeatherDisplay:10.37,2013-04-11 06:00:00,
2013-04-11 02:05:00,37.8,36.8,29.98,WNW,292,2.3,2.3,96,0.00,CLR,,0.00,WeatherDisplay:10.37,2013-04-11 06:05:00,
2013-04-11 02:10:00,37.9,36.3,29.98,NE,45,3.5,3.5,94,0.00,CLR,,0.00,WeatherDisplay:10.37,2013-04-11 06:10:00,
2013-04-11 02:15:00,37.8,36.0,29.96,NNW,338,3.5,3.5,93,0.00,CLR,,0.00,WeatherDisplay:10.37,2013-04-11 06:15:00,
2013-04-11 02:20:00,37.9,36.1,29.96,WNW,292,1.2,0.0,93,0.00,CLR,,0.00,WeatherDisplay:10.37,2013-04-11 06:20:00,
2013-04-11 02:25:00,37.9,36.1,29.99,West,270,2.3,2.3,93,0.00,CLR,,0.00,WeatherDisplay:10.37,2013-04-11 06:25:00,
2013-04-11 02:30:00,37.9,36.3,29.99,ENE,68,0.0,0.0,94,0.00,CLR,,0.00,WeatherDisplay:10.37,2013-04-11 06:30:00,
2013-04-11 02:35:00,37.8,36.2,29.99,East,90,2.3,2.3,94,0.00,CLR,,0.00,WeatherDisplay:10.37,2013-04-11 06:35:00,
2013-04-11 02:40:00,37.8,36.2,29.98,NE,45,0.0,0.0,94,0.00,CLR,,0.00,WeatherDisplay:10.37,2013-04-11 06:40:00,
2013-04-11 02:45:00,37.8,35.7,29.98,West,270,2.3,2.3,92,0.00,CLR,,0.00,WeatherDisplay:10.37,2013-04-11 06:45:00,
2013-04-11 02:50:00,37.8,36.5,29.99,West,270,2.3,2.3,95,0.00,CLR,,0.00,WeatherDisplay:10.37,2013-04-11 06:50:00,
2013-04-11 02:55:00,37.8,36.5,29.99,West,270,2.3,2.3,95,0.00,CLR,,0.00,WeatherDisplay:10.37,2013-04-11 06:55:00,
2013-04-11 03:00:00,37.4,36.4,29.99,West,270,2.3,2.3,96,0.00,CLR,,0.00,WeatherDisplay:10.37,2013-04-11 07:00:00,
2013-04-11 03:05:00,37.6,36.0,29.99,West,270,2.3,2.3,94,0.00,CLR,,0.00,WeatherDisplay:10.37,2013-04-11 07:05:00,
2013-04-11 03:10:00,37.6,35.5,29.99,North,360,3.5,3.5,92,0.00,CLR,,0.00,WeatherDisplay:10.37,2013-04-11 07:10:00,
2013-04-11 03:15:00,37.8,35.7,30.00,NW,315,2.3,2.6,92,0.00,CLR,,0.00,WeatherDisplay:10.37,2013-04-11 07:15:00,
2013-04-11 03:21:00,37.8,36.2,30.00,West,270,2.7,2.7,94,0.00,CLR,,0.00,WeatherDisplay:10.37,2013-04-11 07:21:00,
2013-04-11 03:26:00,37.8,36.0,30.01,West,270,3.5,3.5,93,0.00,CLR,,0.00,WeatherDisplay:10.37,2013-04-11 07:26:00,
2013-04-11 03:31:00,37.8,36.0,30.01,NW,315,3.5,3.5,93,0.00,CLR,,0.00,WeatherDisplay:10.37,2013-04-11 07:31:00,
2013-04-11 03:36:00,37.8,36.0,30.01,NW,315,2.7,2.7,93,0.00,CLR,,0.00,WeatherDisplay:10.37,2013-04-11 07:36:00,
2013-04-11 03:41:00,37.8,36.0,30.02,North,360,2.3,2.3,93,0.00,CLR,,0.00,WeatherDisplay:10.37,2013-04-11 07:41:00,
2013-04-11 03:46:00,37.8,36.0,30.02,SW,225,2.3,2.3,93,0.00,CLR,,0.00,WeatherDisplay:10.37,2013-04-11 07:46:00,
2013-04-11 03:51:00,37.8,36.2,30.03,West,270,2.3,2.3,94,0.00,CLR,,0.00,WeatherDisplay:10.37,2013-04-11 07:51:00,
2013-04-11 03:56:00,37.8,36.2,30.03,WSW,248,2.3,2.3,94,0.00,CLR,,0.00,WeatherDisplay:10.37,2013-04-11 07:56:00,
2013-04-11 04:01:00,37.8,36.0,30.03,NNW,338,2.3,2.6,93,0.00,CLR,,0.00,WeatherDisplay:10.37,2013-04-11 08:01:00,
2013-04-11 04:06:00,37.8,35.7,30.03,West,270,2.3,2.3,92,0.00,CLR,,0.00,WeatherDisplay:10.37,2013-04-11 08:06:00,
2013-04-11 04:11:00,37.8,35.7,30.03,NNE,22,4.2,4.2,92,0.00,CLR,,0.00,WeatherDisplay:10.37,2013-04-11 08:11:00,
2013-04-11 04:16:00,37.8,35.7,30.03,WNW,292,3.5,3.5,92,0.00,CLR,,0.00,WeatherDisplay:10.37,2013-04-11 08:16:00,
2013-04-11 04:21:00,37.8,35.7,30.03,WNW,292,2.7,2.7,92,0.00,CLR,,0.00,WeatherDisplay:10.37,2013-04-11 08:21:00,
2013-04-11 04:26:00,37.6,35.5,30.03,North,360,0.0,0.0,92,0.00,CLR,,0.00,WeatherDisplay:10.37,2013-04-11 08:26:00,
2013-04-11 04:32:00,37.6,35.5,30.03,NNW,338,2.7,2.7,92,0.00,CLR,,0.00,WeatherDisplay:10.37,2013-04-11 08:32:00,
2013-04-11 04:37:00,37.6,35.8,30.02,West,270,2.7,2.7,93,0.00,CLR,,0.00,WeatherDisplay:10.37,2013-04-11 08:37:00,
2013-04-11 04:42:00,37.6,35.8,30.02,NE,45,3.2,3.2,93,0.00,CLR,,0.00,WeatherDisplay:10.37,2013-04-11 08:42:00,
2013-04-11 04:47:00,37.6,35.8,30.02,NNW,338,3.5,3.5,93,0.00,CLR,,0.00,WeatherDisplay:10.37,2013-04-11 08:47:00,
2013-04-11 04:52:00,37.4,35.0,30.00,NE,45,4.6,4.6,91,0.00,CLR,,0.00,WeatherDisplay:10.37,2013-04-11 08:52:00,
2013-04-11 04:57:00,37.4,34.7,30.00,NE,45,3.7,3.7,90,0.00,CLR,,0.00,WeatherDisplay:10.37,2013-04-11 08:57:00,
2013-04-11 05:02:00,37.4,34.5,29.99,NW,315,4.6,4.6,89,0.00,CLR,,0.00,WeatherDisplay:10.37,2013-04-11 09:02:00,
2013-04-11 05:07:00,37.4,34.2,29.99,ENE,68,5.8,5.8,88,0.00,CLR,,0.00,WeatherDisplay:10.37,2013-04-11 09:07:00,
2013-04-11 05:12:00,37.4,34.2,30.00,NE,45,3.7,3.7,88,0.00,CLR,,0.00,WeatherDisplay:10.37,2013-04-11 09:12:00,
2013-04-11 05:17:00,37.2,33.7,30.00,NE,45,5.8,5.8,87,0.00,CLR,,0.00,WeatherDisplay:10.37,2013-04-11 09:17:00,
2013-04-11 05:22:00,37.2,34.0,30.00,NNE,22,3.7,3.7,88,0.00,CLR,,0.00,WeatherDisplay:10.37,2013-04-11 09:22:00,
2013-04-11 05:27:00,37.2,33.7,30.00,NNW,338,5.8,5.8,87,0.00,CLR,,0.00,WeatherDisplay:10.37,2013-04-11 09:27:00,
2013-04-11 05:32:00,37.0,32.9,30.00,NNE,22,6.9,6.9,85,0.00,CLR,,0.00,WeatherDisplay:10.37,2013-04-11 09:32:00,
2013-04-11 05:37:00,36.9,33.4,30.00,NNW,338,5.8,5.8,87,0.00,CLR,,0.00,WeatherDisplay:10.37,2013-04-11 09:37:00,
2013-04-11 05:42:00,36.5,32.7,30.00,WNW,292,6.9,6.9,86,0.00,CLR,,0.00,WeatherDisplay:10.37,2013-04-11 09:42:00,
2013-04-11 05:47:00,36.5,33.0,30.00,NNE,22,5.8,5.8,87,0.00,CLR,,0.00,WeatherDisplay:10.37,2013-04-11 09:47:00,
2013-04-11 05:53:00,36.3,32.5,30.00,North,360,6.9,6.9,86,0.00,CLR,,0.00,WeatherDisplay:10.37,2013-04-11 09:53:00,
2013-04-11 05:58:00,36.3,32.5,30.00,NNE,22,5.8,5.8,86,0.00,CLR,,0.00,WeatherDisplay:10.37,2013-04-11 09:58:00,
2013-04-11 06:03:00,36.1,32.3,29.99,NNE,22,5.8,5.8,86,0.00,CLR,,0.00,WeatherDisplay:10.37,2013-04-11 10:03:00,
2013-04-11 06:08:00,36.1,32.3,29.99,NE,45,4.6,4.6,86,0.00,CLR,,0.00,WeatherDisplay:10.37,2013-04-11 10:08:00,
2013-04-11 06:13:00,36.0,31.6,29.99,NNE,22,5.8,5.8,84,0.00,CLR,,0.00,WeatherDisplay:10.37,2013-04-11 10:13:00,
2013-04-11 06:18:00,36.0,31.6,30.00,NW,315,5.8,5.8,84,0.00,CLR,,0.00,WeatherDisplay:10.37,2013-04-11 10:18:00,
2013-04-11 06:23:00,35.8,31.4,30.00,NE,45,5.8,5.8,84,0.00,CLR,,0.00,WeatherDisplay:10.37,2013-04-11 10:23:00,
2013-04-11 06:28:00,35.8,30.8,29.99,ENE,68,5.8,5.8,82,0.00,CLR,,0.00,WeatherDisplay:10.37,2013-04-11 10:28:00,
2013-04-11 06:33:00,35.8,30.8,29.99,ENE,68,4.7,4.7,82,0.00,CLR,,0.00,WeatherDisplay:10.37,2013-04-11 10:33:00,
2013-04-11 06:38:00,35.6,30.6,30.00,West,270,6.9,6.9,82,0.00,CLR,,0.00,WeatherDisplay:10.37,2013-04-11 10:38:00,
2013-04-11 06:43:00,35.6,30.3,30.00,West,270,3.7,3.7,81,0.00,CLR,,0.00,WeatherDisplay:10.37,2013-04-11 10:43:00,
2013-04-11 06:48:00,35.6,29.7,30.00,NE,45,5.8,5.8,79,0.00,CLR,,0.00,WeatherDisplay:10.37,2013-04-11 10:48:00,
2013-04-11 06:53:00,35.4,29.8,30.02,NNE,22,4.6,4.6,80,0.00,CLR,,0.00,WeatherDisplay:10.37,2013-04-11 10:53:00,
2013-04-11 06:58:00,35.4,28.6,30.02,North,360,4.6,4.6,76,0.00,CLR,,0.00,WeatherDisplay:10.37,2013-04-11 10:58:00,
2013-04-11 07:03:00,35.2,29.6,30.02,ESE,112,5.8,5.8,80,0.00,CLR,,0.00,WeatherDisplay:10.37,2013-04-11 11:03:00,
2013-04-11 07:08:00,34.7,29.8,30.02,NNW,338,4.6,4.6,82,0.01,RA,,0.01,WeatherDisplay:10.37,2013-04-11 11:08:00,
2013-04-11 07:13:00,34.2,30.4,30.00,NNE,22,4.6,4.6,86,0.01,RA,,0.01,WeatherDisplay:10.37,2013-04-11 11:13:00,
2013-04-11 07:18:00,34.0,30.0,30.00,NE,45,6.9,6.9,85,0.01,,,0.02,WeatherDisplay:10.37,2013-04-11 11:18:00,
2013-04-11 07:23:00,33.8,30.1,30.00,NE,45,4.7,4.7,86,0.02,RA,,0.02,WeatherDisplay:10.37,2013-04-11 11:23:00,
2013-04-11 07:28:00,33.8,30.3,30.00,NNW,338,4.6,4.6,87,0.02,RA,,0.02,WeatherDisplay:10.37,2013-04-11 11:28:00,
2013-04-11 07:33:00,33.6,30.4,30.00,NNE,22,3.5,3.5,88,0.02,CLR,,0.02,WeatherDisplay:10.37,2013-04-11 11:33:00,
2013-04-11 07:38:00,33.4,30.5,29.99,WNW,292,4.6,4.6,89,0.02,CLR,,0.02,WeatherDisplay:10.37,2013-04-11 11:38:00,
2013-04-11 07:43:00,33.3,30.4,29.99,West,270,4.7,4.7,89,0.03,RA,,0.03,WeatherDisplay:10.37,2013-04-11 11:43:00,
2013-04-11 07:48:00,32.9,30.0,29.99,NE,45,4.6,4.6,89,0.03,RA,,0.03,WeatherDisplay:10.37,2013-04-11 11:48:00,
2013-04-11 07:53:00,32.7,29.8,30.01,NNE,22,4.7,4.7,89,0.04,RA,,0.04,WeatherDisplay:10.37,2013-04-11 11:53:00,
2013-04-11 07:58:00,32.7,30.1,30.01,ENE,68,5.8,5.8,90,0.05,RA,,0.05,WeatherDisplay:10.37,2013-04-11 11:58:00,
2013-04-11 08:03:00,32.5,29.9,30.00,NNE,22,5.8,5.8,90,0.05,RA,,0.06,WeatherDisplay:10.37,2013-04-11 12:03:00,
2013-04-11 08:08:00,32.5,30.4,30.00,ESE,112,4.2,4.2,92,0.05,RA,,0.06,WeatherDisplay:10.37,2013-04-11 12:08:00,
2013-04-11 08:13:00,32.5,30.2,30.02,NE,45,5.8,5.8,91,0.06,RA,,0.07,WeatherDisplay:10.37,2013-04-11 12:13:00,
2013-04-11 08:18:00,32.5,30.2,30.02,North,360,5.8,5.8,91,0.06,RA,,0.07,WeatherDisplay:10.37,2013-04-11 12:18:00,
2013-04-11 08:23:00,32.4,30.1,30.02,NE,45,4.7,4.7,91,0.05,,,0.07,WeatherDisplay:10.37,2013-04-11 12:23:00,
2013-04-11 08:28:00,32.4,30.3,30.06,NE,45,4.7,4.7,92,0.06,RA,,0.09,WeatherDisplay:10.37,2013-04-11 12:28:00,
2013-04-11 08:33:00,32.0,30.2,30.06,ENE,68,6.9,6.9,93,0.08,RA,,0.10,WeatherDisplay:10.37,2013-04-11 12:33:00,
2013-04-11 08:38:00,32.0,30.5,30.03,NNE,22,4.6,4.6,94,0.10,RA,,0.13,WeatherDisplay:10.37,2013-04-11 12:38:00,
2013-04-11 08:43:00,32.0,30.5,30.03,NE,45,4.7,4.7,94,0.10,RA,,0.13,WeatherDisplay:10.37,2013-04-11 12:43:00,
2013-04-11 08:48:00,32.0,30.5,30.02,West,270,4.7,4.7,94,0.11,RA,,0.14,WeatherDisplay:10.37,2013-04-11 12:48:00,
2013-04-11 08:53:00,32.2,30.4,30.02,East,90,5.8,5.8,93,0.10,RA,,0.14,WeatherDisplay:10.37,2013-04-11 12:53:00,
2013-04-11 08:58:00,32.0,30.5,30.02,North,360,5.8,5.8,94,0.09,CLR,,0.14,WeatherDisplay:10.37,2013-04-11 12:58:00,
2013-04-11 09:03:00,32.0,29.9,30.04,NNE,22,4.6,4.6,92,0.09,RA,,0.15,WeatherDisplay:10.37,2013-04-11 13:03:00,
2013-04-11 09:08:00,32.0,29.9,30.04,NE,45,4.6,4.6,92,0.09,RA,,0.15,WeatherDisplay:10.37,2013-04-11 13:08:00,
2013-04-11 09:13:00,32.0,30.2,30.07,NE,45,4.7,4.7,93,0.09,RA,,0.16,WeatherDisplay:10.37,2013-04-11 13:13:00,
2013-04-11 09:18:00,31.8,30.0,30.07,ENE,68,3.5,3.5,93,0.09,RA,,0.16,WeatherDisplay:10.37,2013-04-11 13:18:00,
2013-04-11 09:23:00,31.8,30.3,30.07,NW,315,4.6,4.6,94,0.09,CLR,,0.16,WeatherDisplay:10.37,2013-04-11 13:23:00,
2013-04-11 09:28:00,31.6,29.8,30.07,NE,45,4.6,4.6,93,0.09,RA,,0.17,WeatherDisplay:10.37,2013-04-11 13:28:00,
2013-04-11 09:33:00,31.6,30.1,30.07,NNW,338,4.7,4.7,94,0.06,RA,,0.17,WeatherDisplay:10.37,2013-04-11 13:33:00,
2013-04-11 09:38:00,31.6,30.1,30.07,West,270,4.6,4.6,94,0.04,,,0.17,WeatherDisplay:10.37,2013-04-11 13:38:00,
2013-04-11 09:43:00,31.3,29.8,30.07,SE,135,5.8,5.8,94,0.04,CLR,,0.17,WeatherDisplay:10.37,2013-04-11 13:43:00,
2013-04-11 09:48:00,31.3,29.5,30.07,NE,45,8.1,8.1,93,0.03,CLR,,0.17,WeatherDisplay:10.37,2013-04-11 13:48:00,
2013-04-11 09:54:00,31.1,29.0,30.07,West,270,5.8,5.8,92,0.03,CLR,,0.17,WeatherDisplay:10.37,2013-04-11 13:54:00,
2013-04-11 09:59:00,31.1,28.8,30.07,NE,45,5.3,5.3,91,0.03,CLR,,0.17,WeatherDisplay:10.37,2013-04-11 13:59:00,
2013-04-11 10:04:00,31.1,28.5,30.09,NE,45,6.9,6.9,90,0.02,CLR,,0.17,WeatherDisplay:10.37,2013-04-11 14:04:00,
2013-04-11 10:09:00,31.3,29.2,30.09,NE,45,5.8,5.8,92,0.02,CLR,,0.17,WeatherDisplay:10.37,2013-04-11 14:09:00,
2013-04-11 10:14:00,31.3,29.5,30.09,West,270,4.7,4.7,93,0.01,CLR,,0.17,WeatherDisplay:10.37,2013-04-11 14:14:00,
2013-04-11 10:19:00,31.1,29.0,30.09,WSW,248,5.8,5.8,92,0.01,CLR,,0.17,WeatherDisplay:10.37,2013-04-11 14:19:00,
2013-04-11 10:24:00,31.3,29.5,30.09,NW,315,3.5,3.5,93,0.01,CLR,,0.17,WeatherDisplay:10.37,2013-04-11 14:24:00,
2013-04-11 10:29:00,31.5,30.0,30.11,ENE,68,3.5,3.5,94,0.00,CLR,,0.17,WeatherDisplay:10.37,2013-04-11 14:29:00,
2013-04-11 10:34:00,31.5,30.0,30.11,WNW,292,3.5,3.5,94,0.00,CLR,,0.17,WeatherDisplay:10.37,2013-04-11 14:34:00,
2013-04-11 10:39:00,31.5,30.2,30.10,NE,45,3.5,3.5,95,0.00,CLR,,0.17,WeatherDisplay:10.37,2013-04-11 14:39:00,
2013-04-11 10:44:00,31.5,30.5,30.10,NE,45,4.6,4.6,96,0.00,CLR,,0.17,WeatherDisplay:10.37,2013-04-11 14:44:00,
2013-04-11 10:49:00,31.5,30.5,30.10,NE,45,4.6,4.6,96,0.00,CLR,,0.17,WeatherDisplay:10.37,2013-04-11 14:49:00,
2013-04-11 10:54:00,31.6,30.6,30.10,NE,45,4.6,4.6,96,0.00,CLR,,0.17,WeatherDisplay:10.37,2013-04-11 14:54:00,
2013-04-11 10:59:00,31.6,30.6,30.10,NE,45,4.6,4.6,96,0.00,CLR,,0.17,WeatherDisplay:10.37,2013-04-11 14:59:00,
2013-04-11 11:04:00,31.6,30.6,30.10,NE,45,4.6,4.6,96,0.00,CLR,,0.17,WeatherDisplay:10.37,2013-04-11 15:04:00,
2013-04-11 11:09:00,31.6,30.6,30.08,NE,45,4.6,4.6,96,0.00,CLR,,0.17,WeatherDisplay:10.37,2013-04-11 15:09:00,
2013-04-11 11:14:00,31.6,30.6,30.07,NE,45,4.6,4.6,96,0.00,CLR,,0.17,WeatherDisplay:10.37,2013-04-11 15:14:00,
2013-04-11 11:19:00,31.6,30.6,30.07,NE,45,4.6,4.6,96,0.00,CLR,,0.17,WeatherDisplay:10.37,2013-04-11 15:19:00,
2013-04-11 11:24:00,32.9,31.4,30.07,East,90,4.7,4.7,94,0.00,CLR,,0.17,WeatherDisplay:10.37,2013-04-11 15:24:00,
2013-04-11 11:29:00,33.4,31.3,30.04,ESE,112,8.1,8.1,92,0.00,CLR,,0.17,WeatherDisplay:10.37,2013-04-11 15:29:00,
2013-04-11 11:34:00,32.9,30.8,30.04,NNE,22,5.8,5.8,92,0.00,CLR,,0.17,WeatherDisplay:10.37,2013-04-11 15:34:00,
2013-04-11 11:39:00,32.9,31.1,30.07,NE,45,4.7,4.7,93,0.00,CLR,,0.17,WeatherDisplay:10.37,2013-04-11 15:39:00,
2013-04-11 11:44:00,33.0,30.9,30.07,NE,54,5.0,6.0,92,0.00,CLR,,0.17,WeatherDisplay:10.37,2013-04-11 15:44:00,
2013-04-11 11:49:00,32.9,30.8,30.08,West,270,4.7,4.7,92,0.00,CLR,,0.17,WeatherDisplay:10.37,2013-04-11 15:49:00,
2013-04-11 11:54:00,32.7,30.1,30.08,NNE,27,6.0,8.0,90,0.00,RA,,0.18,WeatherDisplay:10.37,2013-04-11 15:54:00,
2013-04-11 11:59:00,32.8,30.4,30.08,ENE,62,6.0,8.0,91,0.00,RA,,0.18,WeatherDisplay:10.37,2013-04-11 15:59:00,
2013-04-11 12:04:00,32.4,30.1,30.07,NE,45,6.9,6.9,91,0.01,CLR,,0.18,WeatherDisplay:10.37,2013-04-11 16:04:00,
2013-04-11 12:09:00,32.4,29.8,30.07,NE,45,5.8,5.8,90,0.01,CLR,,0.18,WeatherDisplay:10.37,2013-04-11 16:09:00,
2013-04-11 12:14:00,32.7,30.6,30.08,NNE,25,2.0,6.0,92,0.00,CLR,,0.18,WeatherDisplay:10.37,2013-04-11 16:14:00,
2013-04-11 12:19:00,32.4,30.3,30.08,ESE,112,4.6,4.6,92,0.01,CLR,,0.18,WeatherDisplay:10.37,2013-04-11 16:19:00,
2013-04-11 12:24:00,32.5,30.4,30.08,East,79,6.0,8.0,92,0.00,CLR,,0.18,WeatherDisplay:10.37,2013-04-11 16:24:00,
2013-04-11 12:29:00,32.4,30.3,30.07,NW,315,5.8,5.8,92,0.01,CLR,,0.18,WeatherDisplay:10.37,2013-04-11 16:29:00,
2013-04-11 12:34:00,32.7,30.6,30.07,NE,45,4.6,4.6,92,0.01,CLR,,0.18,WeatherDisplay:10.37,2013-04-11 16:34:00,
2013-04-11 12:39:00,32.9,31.1,30.05,ENE,68,8.1,8.1,93,0.01,CLR,,0.18,WeatherDisplay:10.37,2013-04-11 16:39:00,
2013-04-11 12:44:00,32.7,30.9,30.05,NNE,27,5.0,6.0,93,0.00,CLR,,0.18,WeatherDisplay:10.37,2013-04-11 16:44:00,
2013-04-11 12:49:00,32.5,30.4,30.05,NNE,22,5.8,5.8,92,0.01,CLR,,0.18,WeatherDisplay:10.37,2013-04-11 16:49:00,
2013-04-11 12:54:00,32.5,30.7,30.05,NNE,28,2.0,5.0,93,0.00,CLR,,0.18,WeatherDisplay:10.37,2013-04-11 16:54:00,
2013-04-11 12:59:00,32.5,30.4,30.05,East,90,6.3,6.3,92,0.00,CLR,,0.18,WeatherDisplay:10.37,2013-04-11 16:59:00,
2013-04-11 13:04:00,32.5,30.4,30.08,NE,36,3.0,4.0,92,0.00,CLR,,0.18,WeatherDisplay:10.37,2013-04-11 17:04:00,
2013-04-11 13:09:00,32.5,30.4,30.08,NNE,22,5.8,5.8,92,0.00,CLR,,0.18,WeatherDisplay:10.37,2013-04-11 17:09:00,
2013-04-11 13:14:00,32.4,30.6,30.06,NE,45,5.0,6.0,93,0.00,CLR,,0.18,WeatherDisplay:10.37,2013-04-11 17:14:00,
2013-04-11 13:19:00,32.2,30.1,30.06,ENE,68,6.8,6.8,92,0.00,CLR,,0.18,WeatherDisplay:10.37,2013-04-11 17:19:00,
2013-04-11 13:24:00,32.4,30.6,30.06,North,358,3.0,7.0,93,0.00,CLR,,0.18,WeatherDisplay:10.37,2013-04-11 17:24:00,
2013-04-11 13:29:00,32.4,30.9,30.06,NNW,328,2.0,5.0,94,0.00,CLR,,0.18,WeatherDisplay:10.37,2013-04-11 17:29:00,
2013-04-11 13:34:00,32.4,30.9,30.06,NNE,20,3.0,6.0,94,0.00,CLR,,0.18,WeatherDisplay:10.37,2013-04-11 17:34:00,
2013-04-11 13:39:00,32.5,31.0,30.06,NNE,33,2.0,6.0,94,0.00,CLR,,0.18,WeatherDisplay:10.37,2013-04-11 17:39:00,
2013-04-11 13:44:00,32.2,30.7,30.06,ESE,112,4.6,4.6,94,0.00,CLR,,0.18,WeatherDisplay:10.37,2013-04-11 17:44:00,
2013-04-11 13:49:00,32.4,30.9,30.05,NNE,22,3.5,3.5,94,0.00,CLR,,0.18,WeatherDisplay:10.37,2013-04-11 17:49:00,
2013-04-11 13:54:00,32.5,31.2,30.05,NNE,27,2.0,3.0,95,0.00,CLR,,0.18,WeatherDisplay:10.37,2013-04-11 17:54:00,
2013-04-11 13:59:00,32.4,31.1,30.05,NE,45,1.2,0.0,95,0.01,RA,,0.19,WeatherDisplay:10.37,2013-04-11 17:59:00,
2013-04-11 14:04:00,32.5,31.5,30.05,NNE,25,2.0,4.0,96,0.00,RA,,0.19,WeatherDisplay:10.37,2013-04-11 18:04:00,
2013-04-11 14:09:00,32.6,31.3,30.05,NNE,18,3.0,5.0,95,0.00,CLR,,0.19,WeatherDisplay:10.37,2013-04-11 18:09:00,
2013-04-11 14:14:00,32.5,31.0,30.05,North,360,5.8,5.8,94,0.01,CLR,,0.19,WeatherDisplay:10.37,2013-04-11 18:14:00,
2013-04-11 14:19:00,32.7,31.2,30.05,ENE,68,4.6,4.6,94,0.01,CLR,,0.19,WeatherDisplay:10.37,2013-04-11 18:19:00,
2013-04-11 14:24:00,32.7,31.4,30.05,NE,46,3.0,4.0,95,0.00,CLR,,0.19,WeatherDisplay:10.37,2013-04-11 18:24:00,
2013-04-11 14:29:00,32.5,31.2,30.04,NE,45,4.6,4.7,95,0.01,CLR,,0.19,WeatherDisplay:10.37,2013-04-11 18:29:00,
2013-04-11 14:34:00,32.4,30.9,30.04,NNE,21,3.0,5.0,94,0.00,CLR,,0.19,WeatherDisplay:10.37,2013-04-11 18:34:00,
2013-04-11 14:39:00,32.7,31.2,30.04,NE,45,4.6,4.6,94,0.01,CLR,,0.19,WeatherDisplay:10.37,2013-04-11 18:39:00,
2013-04-11 14:44:00,32.7,31.1,30.04,NNE,32,3.0,6.0,94,0.00,CLR,,0.19,WeatherDisplay:10.37,2013-04-11 18:44:00,
2013-04-11 14:49:00,32.7,31.4,30.03,NE,45,3.5,3.5,95,0.01,CLR,,0.19,WeatherDisplay:10.37,2013-04-11 18:49:00,
2013-04-11 14:54:00,32.5,31.2,30.03,NNW,338,4.6,4.6,95,0.01,CLR,,0.19,WeatherDisplay:10.37,2013-04-11 18:54:00,
2013-04-11 14:59:00,32.7,31.2,30.03,NE,55,5.0,6.0,94,0.00,CLR,,0.19,WeatherDisplay:10.37,2013-04-11 18:59:00,
2013-04-11 15:04:00,32.9,31.4,30.04,East,90,3.2,3.2,94,0.00,CLR,,0.19,WeatherDisplay:10.37,2013-04-11 19:04:00,
2013-04-11 15:09:00,32.5,31.0,30.04,NE,45,4.6,4.6,94,0.00,CLR,,0.19,WeatherDisplay:10.37,2013-04-11 19:09:00,
2013-04-11 15:14:00,32.5,31.0,30.04,NE,45,5.0,6.0,94,0.00,CLR,,0.19,WeatherDisplay:10.37,2013-04-11 19:14:00,
2013-04-11 15:19:00,32.7,31.2,30.04,ENE,57,5.0,6.0,94,0.00,CLR,,0.19,WeatherDisplay:10.37,2013-04-11 19:19:00,
2013-04-11 15:24:00,32.7,31.2,30.04,NNE,26,2.0,5.0,94,0.00,CLR,,0.19,WeatherDisplay:10.37,2013-04-11 19:24:00,
2013-04-11 15:29:00,32.6,31.3,30.04,NNW,336,5.0,6.0,95,0.00,CLR,,0.19,WeatherDisplay:10.37,2013-04-11 19:29:00,
2013-04-11 15:34:00,32.5,31.2,30.04,North,7,3.0,5.0,95,0.00,CLR,,0.19,WeatherDisplay:10.37,2013-04-11 19:34:00,
2013-04-11 15:39:00,32.5,31.2,30.04,NE,45,4.6,4.6,95,0.00,CLR,,0.19,WeatherDisplay:10.37,2013-04-11 19:39:00,
2013-04-11 15:44:00,32.5,31.2,30.04,ENE,68,4.6,4.6,95,0.00,CLR,,0.19,WeatherDisplay:10.37,2013-04-11 19:44:00,
2013-04-11 15:49:00,32.4,31.4,30.04,NNE,21,3.0,5.0,96,0.00,CLR,,0.19,WeatherDisplay:10.37,2013-04-11 19:49:00,
2013-04-11 15:54:00,32.4,31.1,30.04,ENE,68,5.8,5.8,95,0.00,CLR,,0.19,WeatherDisplay:10.37,2013-04-11 19:54:00,
2013-04-11 15:59:00,32.5,31.4,30.04,NE,35,2.0,4.0,96,0.00,CLR,,0.19,WeatherDisplay:10.37,2013-04-11 19:59:00,
2013-04-11 16:04:00,32.4,31.4,30.05,NNE,22,3.5,3.5,96,0.00,CLR,,0.19,WeatherDisplay:10.37,2013-04-11 20:04:00,
2013-04-11 16:09:00,32.5,31.5,30.05,ENE,68,5.8,5.8,96,0.00,CLR,,0.19,WeatherDisplay:10.37,2013-04-11 20:09:00,
2013-04-11 16:14:00,32.4,31.4,30.04,NNE,22,3.0,5.0,96,0.00,CLR,,0.19,WeatherDisplay:10.37,2013-04-11 20:14:00,
2013-04-11 16:19:00,32.2,31.2,30.04,NE,45,4.6,4.6,96,0.00,CLR,,0.19,WeatherDisplay:10.37,2013-04-11 20:19:00,
2013-04-11 16:24:00,32.2,31.2,30.04,North,0,3.0,5.0,96,0.00,CLR,,0.19,WeatherDisplay:10.37,2013-04-11 20:24:00,
2013-04-11 16:29:00,32.2,31.2,30.05,NNE,15,3.0,5.0,96,0.00,CLR,,0.19,WeatherDisplay:10.37,2013-04-11 20:29:00,
2013-04-11 16:34:00,32.2,31.2,30.05,East,90,5.3,5.3,96,0.00,CLR,,0.19,WeatherDisplay:10.37,2013-04-11 20:34:00,
2013-04-11 16:39:00,32.5,31.5,30.02,NE,49,3.0,8.0,96,0.00,CLR,,0.19,WeatherDisplay:10.37,2013-04-11 20:39:00,
2013-04-11 16:44:00,32.5,31.5,30.02,East,83,2.0,6.0,96,0.00,CLR,,0.19,WeatherDisplay:10.37,2013-04-11 20:44:00,
2013-04-11 16:49:00,32.7,31.7,30.01,NE,45,3.5,3.5,96,0.00,CLR,,0.19,WeatherDisplay:10.37,2013-04-11 20:49:00,
2013-04-11 16:54:00,32.9,31.9,30.01,ENE,65,3.0,6.0,96,0.00,CLR,,0.19,WeatherDisplay:10.37,2013-04-11 20:54:00,
2013-04-11 16:59:00,32.7,31.4,30.01,NW,315,3.7,3.7,95,0.00,CLR,,0.19,WeatherDisplay:10.37,2013-04-11 20:59:00,
2013-04-11 17:04:00,32.7,31.4,30.02,NNE,22,3.0,5.0,95,0.00,CLR,,0.19,WeatherDisplay:10.37,2013-04-11 21:04:00,
2013-04-11 17:09:00,32.7,31.4,30.02,North,10,6.0,8.0,95,0.00,CLR,,0.19,WeatherDisplay:10.37,2013-04-11 21:09:00,
2013-04-11 17:14:00,32.7,31.4,30.03,North,5,5.0,5.0,95,0.00,CLR,,0.19,WeatherDisplay:10.37,2013-04-11 21:14:00,
2013-04-11 17:19:00,32.7,31.2,30.03,ENE,68,4.6,4.6,94,0.00,CLR,,0.19,WeatherDisplay:10.37,2013-04-11 21:19:00,
2013-04-11 17:24:00,32.7,31.4,30.03,NNE,22,4.6,4.6,95,0.00,CLR,,0.19,WeatherDisplay:10.37,2013-04-11 21:24:00,
2013-04-11 17:29:00,32.5,31.0,30.02,NNE,22,5.8,5.8,94,0.00,CLR,,0.19,WeatherDisplay:10.37,2013-04-11 21:29:00,
2013-04-11 17:34:00,32.5,31.0,30.02,ENE,68,4.6,4.6,94,0.00,CLR,,0.19,WeatherDisplay:10.37,2013-04-11 21:34:00,
2013-04-11 17:39:00,32.5,31.0,30.01,NE,45,5.8,5.8,94,0.00,CLR,,0.19,WeatherDisplay:10.37,2013-04-11 21:39:00,
2013-04-11 17:44:00,32.7,31.2,30.01,ESE,112,4.6,4.6,94,0.00,CLR,,0.19,WeatherDisplay:10.37,2013-04-11 21:44:00,
2013-04-11 17:49:00,32.7,30.9,30.01,North,360,5.8,5.8,93,0.00,CLR,,0.19,WeatherDisplay:10.37,2013-04-11 21:49:00,
2013-04-11 17:55:00,32.7,30.9,30.01,NE,45,3.7,3.7,93,0.00,CLR,,0.19,WeatherDisplay:10.37,2013-04-11 21:55:00,
2013-04-11 18:00:00,32.9,31.4,30.01,NE,45,4.7,4.7,94,0.00,CLR,,0.19,WeatherDisplay:10.37,2013-04-11 22:00:00,
2013-04-11 18:05:00,32.7,31.2,30.00,NE,45,4.6,4.6,94,0.00,CLR,,0.19,WeatherDisplay:10.37,2013-04-11 22:05:00,
2013-04-11 18:10:00,32.7,31.2,30.00,NE,45,4.6,4.6,94,0.00,CLR,,0.19,WeatherDisplay:10.37,2013-04-11 22:10:00,
2013-04-11 18:15:00,32.5,31.0,29.99,NNE,22,5.8,5.8,94,0.00,CLR,,0.19,WeatherDisplay:10.37,2013-04-11 22:15:00,
2013-04-11 18:20:00,32.5,31.0,29.99,NE,45,4.6,4.6,94,0.00,CLR,,0.19,WeatherDisplay:10.37,2013-04-11 22:20:00,
2013-04-11 18:25:00,32.5,31.2,29.98,North,360,4.6,4.6,95,0.00,CLR,,0.19,WeatherDisplay:10.37,2013-04-11 22:25:00,
2013-04-11 18:30:00,32.7,31.4,29.98,NE,45,4.6,4.6,95,0.00,CLR,,0.19,WeatherDisplay:10.37,2013-04-11 22:30:00,
2013-04-11 18:35:00,32.9,31.6,29.98,NNE,22,2.3,2.4,95,0.00,CLR,,0.19,WeatherDisplay:10.37,2013-04-11 22:35:00,
2013-04-11 18:40:00,32.9,31.9,29.98,ENE,68,2.3,2.3,96,0.00,CLR,,0.19,WeatherDisplay:10.37,2013-04-11 22:40:00,
2013-04-11 18:45:00,32.9,31.9,29.98,ENE,68,4.6,4.6,96,0.00,CLR,,0.19,WeatherDisplay:10.37,2013-04-11 22:45:00,
2013-04-11 18:50:00,32.7,31.7,29.98,ENE,68,4.7,4.7,96,0.00,CLR,,0.19,WeatherDisplay:10.37,2013-04-11 22:50:00,
2013-04-11 18:55:00,32.5,31.5,29.98,NE,45,4.7,4.7,96,0.00,CLR,,0.19,WeatherDisplay:10.37,2013-04-11 22:55:00,
2013-04-11 19:00:00,32.5,31.7,29.98,West,270,4.2,4.2,97,0.00,CLR,,0.19,WeatherDisplay:10.37,2013-04-11 23:00:00,
2013-04-11 19:05:00,32.4,31.6,29.98,SSW,202,4.6,4.6,97,0.00,CLR,,0.19,WeatherDisplay:10.37,2013-04-11 23:05:00,
2013-04-11 19:10:00,32.4,31.6,29.98,ENE,68,6.9,6.9,97,0.00,CLR,,0.19,WeatherDisplay:10.37,2013-04-11 23:10:00,
2013-04-11 19:15:00,32.4,31.4,30.00,ENE,68,4.7,4.7,96,0.00,CLR,,0.19,WeatherDisplay:10.37,2013-04-11 23:15:00,
2013-04-11 19:20:00,32.5,31.5,30.00,ENE,68,3.5,3.5,96,0.00,CLR,,0.19,WeatherDisplay:10.37,2013-04-11 23:20:00,
2013-04-11 19:25:00,32.5,31.7,30.00,West,270,3.7,3.7,97,0.00,CLR,,0.19,WeatherDisplay:10.37,2013-04-11 23:25:00,
2013-04-11 19:30:00,32.2,31.4,30.00,East,90,5.8,5.8,97,0.00,CLR,,0.19,WeatherDisplay:10.37,2013-04-11 23:30:00,
2013-04-11 19:35:00,32.4,31.6,30.00,East,90,4.7,4.7,97,0.00,CLR,,0.19,WeatherDisplay:10.37,2013-04-11 23:35:00,
2013-04-11 19:40:00,32.2,31.4,29.99,NNE,22,5.3,5.3,97,0.00,CLR,,0.19,WeatherDisplay:10.37,2013-04-11 23:40:00,
2013-04-11 19:45:00,32.2,31.4,29.99,NNW,338,5.8,5.8,97,0.00,CLR,,0.19,WeatherDisplay:10.37,2013-04-11 23:45:00,
2013-04-11 19:50:00,32.2,31.4,29.99,NE,45,3.5,3.5,97,0.00,CLR,,0.19,WeatherDisplay:10.37,2013-04-11 23:50:00,
2013-04-11 19:55:00,32.0,31.2,29.99,NE,45,4.6,4.6,97,0.00,CLR,,0.19,WeatherDisplay:10.37,2013-04-11 23:55:00,
2013-04-11 20:00:00,32.0,31.5,29.99,ENE,68,4.6,4.6,98,0.00,CLR,,0.19,WeatherDisplay:10.37,2013-04-12 00:00:00,
2013-04-11 20:05:00,31.8,31.3,29.99,NE,45,6.3,6.3,98,0.00,CLR,,0.19,WeatherDisplay:10.37,2013-04-12 00:05:00,
2013-04-11 20:10:00,31.8,31.3,29.99,ESE,112,5.8,5.8,98,0.00,CLR,,0.19,WeatherDisplay:10.37,2013-04-12 00:10:00,
2013-04-11 20:15:00,31.8,31.3,29.99,West,270,5.8,5.8,98,0.00,CLR,,0.19,WeatherDisplay:10.37,2013-04-12 00:15:00,
2013-04-11 20:20:00,31.8,31.3,29.99,West,270,4.6,4.6,98,0.00,CLR,,0.19,WeatherDisplay:10.37,2013-04-12 00:20:00,
2013-04-11 20:25:00,31.8,31.3,29.99,NE,45,5.8,5.8,98,0.00,CLR,,0.19,WeatherDisplay:10.37,2013-04-12 00:25:00,
2013-04-11 20:30:00,32.0,31.5,29.99,NNW,338,5.8,5.8,98,0.00,CLR,,0.19,WeatherDisplay:10.37,2013-04-12 00:30:00,
2013-04-11 20:35:00,31.6,31.1,29.99,ENE,68,6.9,6.9,98,0.00,CLR,,0.19,WeatherDisplay:10.37,2013-04-12 00:35:00,
2013-04-11 20:40:00,31.8,31.3,29.99,ENE,68,4.6,4.6,98,0.00,CLR,,0.19,WeatherDisplay:10.37,2013-04-12 00:40:00,
2013-04-11 20:45:00,31.8,31.3,29.99,NW,315,5.8,5.8,98,0.00,CLR,,0.19,WeatherDisplay:10.37,2013-04-12 00:45:00,
2013-04-11 20:50:00,31.8,31.3,29.98,NW,315,5.8,5.8,98,0.00,CLR,,0.19,WeatherDisplay:10.37,2013-04-12 00:50:00,
2013-04-11 20:55:00,31.8,31.3,29.98,ENE,68,5.8,5.8,98,0.00,CLR,,0.19,WeatherDisplay:10.37,2013-04-12 00:55:00,
2013-04-11 21:00:00,31.8,31.3,29.98,WNW,292,3.5,3.5,98,0.00,CLR,,0.19,WeatherDisplay:10.37,2013-04-12 01:00:00,
2013-04-11 21:05:00,31.8,31.3,29.99,SE,135,5.8,5.8,98,0.00,CLR,,0.19,WeatherDisplay:10.37,2013-04-12 01:05:00,
2013-04-11 21:10:00,31.8,31.3,29.99,NNE,22,4.6,4.6,98,0.00,CLR,,0.19,WeatherDisplay:10.37,2013-04-12 01:10:00,
2013-04-11 21:15:00,31.8,31.3,29.98,ENE,68,5.8,5.8,98,0.00,CLR,,0.19,WeatherDisplay:10.37,2013-04-12 01:15:00,
2013-04-11 21:20:00,31.8,31.3,29.98,WNW,292,5.8,5.8,98,0.00,CLR,,0.19,WeatherDisplay:10.37,2013-04-12 01:20:00,
2013-04-11 21:25:00,31.8,31.3,29.98,NW,315,4.6,4.6,98,0.00,CLR,,0.19,WeatherDisplay:10.37,2013-04-12 01:25:00,
2013-04-11 21:30:00,31.8,31.3,29.98,NE,45,5.8,5.8,98,0.00,CLR,,0.19,WeatherDisplay:10.37,2013-04-12 01:30:00,
2013-04-11 21:35:00,31.8,31.3,29.98,NE,45,5.8,5.8,98,0.00,CLR,,0.19,WeatherDisplay:10.37,2013-04-12 01:35:00,
2013-04-11 21:40:00,31.8,31.3,29.97,West,270,6.9,6.9,98,0.00,CLR,,0.19,WeatherDisplay:10.37,2013-04-12 01:40:00,
2013-04-11 21:45:00,31.8,31.3,29.97,North,360,5.8,5.8,98,0.00,CLR,,0.19,WeatherDisplay:10.37,2013-04-12 01:45:00,
2013-04-11 21:50:00,32.0,31.5,29.97,South,180,3.5,3.5,98,0.00,CLR,,0.19,WeatherDisplay:10.37,2013-04-12 01:50:00,
2013-04-11 21:55:00,32.0,31.5,29.97,ESE,112,3.5,3.5,98,0.00,CLR,,0.19,WeatherDisplay:10.37,2013-04-12 01:55:00,
2013-04-11 22:00:00,32.2,31.7,29.97,North,360,4.7,4.7,98,0.00,CLR,,0.19,WeatherDisplay:10.37,2013-04-12 02:00:00,
2013-04-11 22:05:00,32.2,31.7,29.98,ENE,68,3.5,3.5,98,0.00,CLR,,0.19,WeatherDisplay:10.37,2013-04-12 02:05:00,
2013-04-11 22:10:00,32.2,31.7,29.98,West,270,2.7,2.7,98,0.00,CLR,,0.19,WeatherDisplay:10.37,2013-04-12 02:10:00,
2013-04-11 22:15:00,32.2,31.7,29.97,NW,315,5.8,5.8,98,0.00,CLR,,0.19,WeatherDisplay:10.37,2013-04-12 02:15:00,
2013-04-11 22:20:00,32.2,31.7,29.97,NE,45,3.7,3.7,98,0.00,CLR,,0.19,WeatherDisplay:10.37,2013-04-12 02:20:00,
2013-04-11 22:25:00,32.2,31.7,29.97,ESE,112,4.6,4.6,98,0.00,CLR,,0.19,WeatherDisplay:10.37,2013-04-12 02:25:00,
2013-04-11 22:30:00,32.2,31.7,29.97,NE,45,4.6,4.6,98,0.00,CLR,,0.19,WeatherDisplay:10.37,2013-04-12 02:30:00,
2013-04-11 22:36:00,32.2,31.7,29.97,WNW,292,4.6,4.6,98,0.00,CLR,,0.19,WeatherDisplay:10.37,2013-04-12 02:36:00,
2013-04-11 22:41:00,32.2,31.7,29.95,NNE,22,4.6,4.6,98,0.00,CLR,,0.19,WeatherDisplay:10.37,2013-04-12 02:41:00,
2013-04-11 22:46:00,32.4,32.2,29.95,NW,315,3.5,3.5,99,0.00,CLR,,0.19,WeatherDisplay:10.37,2013-04-12 02:46:00,
2013-04-11 22:51:00,32.4,32.2,29.94,NNW,338,4.6,4.6,99,0.00,CLR,,0.19,WeatherDisplay:10.37,2013-04-12 02:51:00,
2013-04-11 22:56:00,32.4,32.2,29.94,NE,45,3.7,3.7,99,0.00,CLR,,0.19,WeatherDisplay:10.37,2013-04-12 02:56:00,
2013-04-11 23:01:00,32.4,32.2,29.94,NNE,22,4.2,4.2,99,0.00,CLR,,0.19,WeatherDisplay:10.37,2013-04-12 03:01:00,
2013-04-11 23:06:00,32.4,32.2,29.94,WNW,292,4.6,4.6,99,0.00,CLR,,0.19,WeatherDisplay:10.37,2013-04-12 03:06:00,
2013-04-11 23:11:00,32.4,32.2,29.94,North,360,4.6,4.6,99,0.00,CLR,,0.19,WeatherDisplay:10.37,2013-04-12 03:11:00,
2013-04-11 23:16:00,32.4,32.2,29.93,NW,315,4.6,4.6,99,0.00,CLR,,0.19,WeatherDisplay:10.37,2013-04-12 03:16:00,
2013-04-11 23:21:00,32.4,32.2,29.93,NNW,338,4.6,4.6,99,0.00,CLR,,0.19,WeatherDisplay:10.37,2013-04-12 03:21:00,
2013-04-11 23:26:00,32.5,32.3,29.93,NNE,22,3.7,3.7,99,0.00,CLR,,0.19,WeatherDisplay:10.37,2013-04-12 03:26:00,
2013-04-11 23:31:00,32.5,32.3,29.93,North,360,3.7,3.8,99,0.00,CLR,,0.19,WeatherDisplay:10.37,2013-04-12 03:31:00,
2013-04-11 23:37:00,32.5,32.3,29.92,NNW,338,4.6,4.6,99,0.00,CLR,,0.19,WeatherDisplay:10.37,2013-04-12 03:37:00,
2013-04-11 23:42:00,32.5,32.3,29.92,NNE,22,4.6,4.6,99,0.00,CLR,,0.19,WeatherDisplay:10.37,2013-04-12 03:42:00,
2013-04-11 23:47:00,32.5,32.3,29.92,NNE,22,3.5,3.5,99,0.00,CLR,,0.19,WeatherDisplay:10.37,2013-04-12 03:47:00,
2013-04-11 23:52:00,32.5,32.3,29.91,ENE,68,5.8,5.8,99,0.00,CLR,,0.19,WeatherDisplay:10.37,2013-04-12 03:52:00,
2013-04-11 23:57:00,32.5,32.3,29.91,NE,45,4.6,4.7,99,0.00,CLR,,0.19,WeatherDisplay:10.37,2013-04-12 03:57:00,